Florence, OR (97439)

3:17 PM PST on February 12, 2016 (GMT -0800)
Collard Lake | | Change Station
CLOSE
Current Station
Personal Weather Station
Location: Florence, OR
Elevation: 174 ft
Nearby Weather Stations

Elev 174 ft 44.04 °N, 124.08 °W | Updated 12 seconds ago

Overcast
Overcast
54.3 °F
Feels Like 54.3 °F
N
2.7
Wind Variable Wind from East

Today
High -- | Low -- °F
--% Chance of Precip.
Yesterday
High -- | Low -- °F
Precip. -- in
Pressure 30.25 in
Visibility 4.0 miles
Clouds Scattered Clouds 300 ft
Mostly Cloudy 600 ft
Mostly Cloudy 3700 ft
Dew Point 53 °F
Humidity 94%
Rainfall 0.54 in
Snow Depth Not available.
7:20 AM 5:41 PM
Waxing Crescent, 24% visible
METAR KONP 122255Z AUTO 22009KT 4SM BR SCT003 BKN006 BKN037 11/11 A3025 RMK AO2
Pressure 30.25 in
Visibility 4.0 miles
Clouds Scattered Clouds 300 ft
Mostly Cloudy 600 ft
Mostly Cloudy 3700 ft
Dew Point 53 °F
Humidity 94%
Rainfall 0.54 in
Snow Depth Not available.
7:20 AM 5:41 PM
Waxing Crescent, 24% visible
METAR KONP 122255Z AUTO 22009KT 4SM BR SCT003 BKN006 BKN037 11/11 A3025 RMK AO2

10-Day Weather Forecast

Almanac

Astronomy

Feb. 12, 2016 Rise Set
Actual Time
Civil Twilight
Nautical Twilight
Astronomical Twilight
Moon
Length of Visible Light
Length of Day
Tomorrow will be .
, % of the Moon is Illuminated

Today's Extremes

State Highs State Lows

Community

WunderPhotos

Upload Photos

1,892,431 photos uploaded!

WunderBlog® & News

Nearby

Air Quality

  Air Quality AQ Index Pollutant
Not available.

Snow Depth

Station Depth Elevation

Earthquake Activity

City Distance Mag. Time & Date
Minimum magnitude displayed is 2.5.

Coastal Water Temperatures

Place Temperature

Stations

Nearby Weather Stations

Station Location Temp. Windchill Dew Point Humidity Wind Precip. Elev Updated Type
                   

Watches & Warnings

There are currently no watches in effect.